createdAt,value
2022-08-01T00:00:04.834Z,97111.88
2022-08-01T00:02:32.191Z,97108.22
2022-08-01T00:04:59.446Z,97102.06
2022-08-01T00:07:26.032Z,97110.63
2022-08-01T00:09:52.796Z,97104.53
2022-08-01T00:12:21.043Z,97099.47
2022-08-01T00:14:47.717Z,97101.13
2022-08-01T00:17:14.298Z,97099.31
2022-08-01T00:19:41.048Z,97100.94
2022-08-01T00:22:08.106Z,97101.38
2022-08-01T00:24:35.011Z,97099.09
2022-08-01T00:27:01.637Z,97100.63
2022-08-01T00:30:10.919Z,97095.50
2022-08-01T00:32:14.925Z,97088.53
2022-08-01T00:34:41.527Z,97096.63
2022-08-01T00:37:08.367Z,97099.63
2022-08-01T00:39:35.045Z,97105.56
2022-08-01T00:42:07.372Z,97108.88
2022-08-01T00:44:34.576Z,97104.34
2022-08-01T00:47:01.374Z,97110.81
2022-08-01T00:49:28.428Z,97104.97
2022-08-01T00:51:56.068Z,97110.69
2022-08-01T00:54:24.969Z,97100.84
2022-08-01T00:56:52.098Z,97094.59
2022-08-01T00:59:19.433Z,97099.53
2022-08-01T01:01:49.918Z,97100.06
2022-08-01T01:04:17.585Z,97095.94
2022-08-01T01:06:54.232Z,97101.16
2022-08-01T01:09:45.496Z,97097.88
2022-08-01T01:12:38.730Z,97094.75
2022-08-01T01:15:37.277Z,97090.72
2022-08-01T01:18:10.425Z,97097.06
2022-08-01T01:20:40.287Z,97089.53
2022-08-01T01:23:15.931Z,97086.69
2022-08-01T01:25:54.683Z,97097.06
2022-08-01T01:28:59.838Z,97095.66
2022-08-01T01:31:28.125Z,97099.22
2022-08-01T01:33:58.017Z,97103.16
2022-08-01T01:36:27.337Z,97100.16
2022-08-01T01:38:55.667Z,97106.50
2022-08-01T01:41:23.200Z,97105.59
2022-08-01T01:43:51.603Z,97103.41
2022-08-01T01:46:23.556Z,97107.09
2022-08-01T01:48:51.838Z,97104.34
2022-08-01T01:51:21.921Z,97112.03
2022-08-01T01:53:50.732Z,97107.75
2022-08-01T01:56:20.159Z,97100.09
2022-08-01T01:58:52.734Z,97103.50
2022-08-01T02:01:58.380Z,97110.34
2022-08-01T02:04:08.468Z,97107.84
2022-08-01T02:06:35.753Z,97103.22
2022-08-01T02:09:03.641Z,97106.56
2022-08-01T02:12:07.557Z,97102.78
2022-08-01T02:14:36.470Z,97113.47
2022-08-01T02:17:05.184Z,97112.31
2022-08-01T02:19:37.934Z,97104.28
2022-08-01T02:22:21.655Z,97106.50
2022-08-01T02:24:53.138Z,97109.56
2022-08-01T02:27:30.214Z,97111.41
2022-08-01T02:30:02.355Z,97110.41
2022-08-01T02:32:37.676Z,97110.06
2022-08-01T02:35:08.759Z,97110.22
2022-08-01T02:37:42.994Z,97117.41
2022-08-01T02:40:16.484Z,97110.41
2022-08-01T02:42:47.611Z,97107.06
2022-08-01T02:45:15.089Z,97112.22
2022-08-01T02:47:45.046Z,97102.53
2022-08-01T02:50:14.176Z,97117.09
2022-08-01T02:52:44.830Z,97101.06
2022-08-01T02:55:13.085Z,97099.72
2022-08-01T02:57:51.492Z,97102.38
2022-08-01T03:00:20.101Z,97097.50
2022-08-01T03:02:51.532Z,97103.69
2022-08-01T03:05:18.734Z,97106.22
2022-08-01T03:07:48.516Z,97105.56
2022-08-01T03:10:17.772Z,97098.53
2022-08-01T03:12:48.292Z,97102.22
2022-08-01T03:15:16.560Z,97102.88
2022-08-01T03:17:46.733Z,97104.44
2022-08-01T03:20:16.201Z,97106.09
2022-08-01T03:22:46.022Z,97107.63
2022-08-01T03:25:14.810Z,97108.63
2022-08-01T03:27:44.391Z,97107.09
2022-08-01T03:30:12.601Z,97103.06
2022-08-01T03:32:39.660Z,97108.41
2022-08-01T03:35:07.117Z,97111.06
2022-08-01T03:38:00.281Z,97100.38
2022-08-01T03:40:38.348Z,97102.22
2022-08-01T03:43:32.705Z,97100.53
2022-08-01T03:46:08.447Z,97107.72
2022-08-01T03:48:43.866Z,97106.06
2022-08-01T03:51:11.404Z,97110.56
2022-08-01T03:53:42.454Z,97110.91
2022-08-01T03:56:11.163Z,97107.25
2022-08-01T03:58:40.787Z,97107.25
2022-08-01T04:01:15.980Z,97108.22
2022-08-01T04:03:44.284Z,97098.53
2022-08-01T04:06:11.647Z,97104.88
2022-08-01T04:08:39.527Z,97101.91
2022-08-01T04:11:06.240Z,97104.44
2022-08-01T04:13:36.667Z,97110.44
2022-08-01T04:16:04.460Z,97111.97
2022-08-01T04:18:31.223Z,97106.44
2022-08-01T04:20:57.841Z,97114.47
2022-08-01T04:23:28.551Z,97108.84
2022-08-01T04:25:56.340Z,97115.84
2022-08-01T04:28:23.948Z,97117.00
2022-08-01T04:30:52.967Z,97118.69
2022-08-01T04:33:21.108Z,97128.66
2022-08-01T04:36:01.968Z,97131.06
2022-08-01T04:38:33.976Z,97126.53
2022-08-01T04:41:08.462Z,97131.56
2022-08-01T04:43:36.948Z,97133.56
2022-08-01T04:46:04.951Z,97135.41
2022-08-01T04:48:33.325Z,97138.91
2022-08-01T04:51:00.148Z,97145.94
2022-08-01T04:53:27.620Z,97135.06
2022-08-01T04:55:54.422Z,97142.78
2022-08-01T04:58:21.035Z,97137.13
2022-08-01T05:00:48.008Z,97133.00
2022-08-01T05:03:15.080Z,97133.13
2022-08-01T05:05:41.852Z,97127.66
2022-08-01T05:08:08.633Z,97136.34
2022-08-01T05:10:35.769Z,97133.03
2022-08-01T05:13:02.407Z,97142.41
2022-08-01T05:15:29.088Z,97140.06
2022-08-01T05:17:55.869Z,97147.75
2022-08-01T05:20:22.504Z,97147.38
2022-08-01T05:22:49.347Z,97149.91
2022-08-01T05:25:19.898Z,97142.06
2022-08-01T05:27:49.116Z,97152.19
2022-08-01T05:30:18.560Z,97143.56
2022-08-01T05:32:45.305Z,97141.38
2022-08-01T05:35:12.030Z,97151.56
2022-08-01T05:37:38.639Z,97151.22
2022-08-01T05:40:06.276Z,97150.03
2022-08-01T05:42:32.961Z,97153.56
2022-08-01T05:44:59.591Z,97162.94
2022-08-01T05:47:26.197Z,97168.91
2022-08-01T05:49:52.999Z,97163.72
2022-08-01T05:52:19.762Z,97163.38
2022-08-01T05:54:46.509Z,97162.50
2022-08-01T05:57:13.137Z,97164.53
2022-08-01T05:59:41.880Z,97167.72
2022-08-01T06:02:08.838Z,97160.50
2022-08-01T06:04:35.903Z,97165.22
2022-08-01T06:07:02.512Z,97172.97
2022-08-01T06:09:29.137Z,97177.97
2022-08-01T06:11:56.047Z,97172.31
2022-08-01T06:14:22.740Z,97180.94
2022-08-01T06:16:49.354Z,97175.13
2022-08-01T06:19:15.992Z,97180.47
2022-08-01T06:21:42.576Z,97179.88
2022-08-01T06:24:10.154Z,97178.47
2022-08-01T06:26:38.044Z,97173.16
2022-08-01T06:29:04.861Z,97175.28
2022-08-01T06:31:33.910Z,97166.88
2022-08-01T06:34:00.934Z,97170.16
2022-08-01T06:36:27.873Z,97165.88
2022-08-01T06:38:54.494Z,97171.06
2022-08-01T06:41:21.124Z,97168.81
2022-08-01T06:43:47.753Z,97172.38
2022-08-01T06:46:14.444Z,97160.94
2022-08-01T06:48:41.132Z,97160.38
2022-08-01T06:51:10.620Z,97163.53
2022-08-01T06:53:38.664Z,97162.69
2022-08-01T06:56:07.573Z,97169.63
2022-08-01T06:58:35.566Z,97164.84
2022-08-01T07:01:05.162Z,97171.88
2022-08-01T07:03:52.998Z,97165.06
2022-08-01T07:06:18.647Z,97162.78
2022-08-01T07:08:45.239Z,97157.75
2022-08-01T07:11:11.855Z,97160.88
2022-08-01T07:13:45.675Z,97169.28
2022-08-01T07:16:16.250Z,97169.72
2022-08-01T07:18:43.164Z,97165.16
2022-08-01T07:21:39.241Z,97172.31
2022-08-01T07:23:57.061Z,97175.41
2022-08-01T07:26:23.695Z,97179.81
2022-08-01T07:28:50.281Z,97179.38
2022-08-01T07:31:16.901Z,97191.41
2022-08-01T07:33:48.978Z,97173.44
2022-08-01T07:36:18.887Z,97174.94
2022-08-01T07:38:46.140Z,97171.25
2022-08-01T07:41:12.831Z,97173.25
2022-08-01T07:43:39.415Z,97170.13
2022-08-01T07:46:06.098Z,97170.00
2022-08-01T07:48:33.070Z,97170.56
2022-08-01T07:50:59.756Z,97177.34
2022-08-01T07:53:26.658Z,97182.59
2022-08-01T07:55:53.455Z,97177.84
2022-08-01T07:58:20.076Z,97178.63
2022-08-01T08:00:46.736Z,97185.25
2022-08-01T08:03:13.337Z,97171.25
2022-08-01T08:05:58.507Z,97171.66
2022-08-01T08:08:26.559Z,97175.13
2022-08-01T08:10:53.229Z,97176.88
2022-08-01T08:13:20.048Z,97182.94
2022-08-01T08:15:48.327Z,97184.63
2022-08-01T08:18:15.608Z,97186.84
2022-08-01T08:20:42.215Z,97179.44
2022-08-01T08:23:42.226Z,97185.16
2022-08-01T08:26:12.056Z,97179.94
2022-08-01T08:28:40.320Z,97171.47
2022-08-01T08:31:25.382Z,97171.66
2022-08-01T08:33:55.899Z,97171.00
2022-08-01T08:36:22.559Z,97172.94
2022-08-01T08:39:01.719Z,97172.19
2022-08-01T08:41:36.963Z,97171.00
2022-08-01T08:44:10.821Z,97176.75
2022-08-01T08:47:06.306Z,97173.22
2022-08-01T08:49:37.476Z,97173.84
2022-08-01T08:52:05.803Z,97175.84
2022-08-01T08:54:37.933Z,97173.00
2022-08-01T08:57:05.947Z,97167.19
2022-08-01T08:59:32.911Z,97169.69
2022-08-01T09:01:59.992Z,97173.84
2022-08-01T09:04:27.345Z,97170.13
2022-08-01T09:06:55.221Z,97167.38
2022-08-01T09:09:23.384Z,97175.63
2022-08-01T09:11:57.214Z,97168.59
2022-08-01T09:14:32.750Z,97160.03
2022-08-01T09:17:12.089Z,97159.53
2022-08-01T09:19:50.294Z,97162.06
2022-08-01T09:22:22.206Z,97164.06
2022-08-01T09:25:21.183Z,97172.66
2022-08-01T09:28:04.952Z,97177.44
2022-08-01T09:30:38.567Z,97174.78
2022-08-01T09:33:17.905Z,97167.88
2022-08-01T09:35:56.281Z,97177.84
2022-08-01T09:38:25.653Z,97161.03
2022-08-01T09:40:55.733Z,97162.41
2022-08-01T09:43:27.241Z,97169.97
2022-08-01T09:45:55.390Z,97166.06
2022-08-01T09:48:28.664Z,97166.94
2022-08-01T09:51:04.223Z,97165.78
2022-08-01T09:53:51.191Z,97165.47
2022-08-01T09:56:20.183Z,97166.63
2022-08-01T09:59:02.370Z,97166.34
2022-08-01T10:01:50.216Z,97171.19
2022-08-01T10:04:20.547Z,97164.75
2022-08-01T10:06:53.503Z,97166.63
2022-08-01T10:09:40.394Z,97160.19
2022-08-01T10:12:15.621Z,97154.50
2022-08-01T10:14:50.804Z,97161.06
2022-08-01T10:17:20.696Z,97158.97
2022-08-01T10:19:51.484Z,97163.22
2022-08-01T10:22:19.993Z,97169.72
2022-08-01T10:24:48.816Z,97166.81
2022-08-01T10:27:24.458Z,97155.50
2022-08-01T10:30:16.808Z,97160.72
2022-08-01T10:32:53.150Z,97163.44
2022-08-01T10:35:45.901Z,97156.63
2022-08-01T10:38:10.931Z,97168.53
2022-08-01T10:40:42.531Z,97167.53
2022-08-01T10:43:11.335Z,97164.03
2022-08-01T10:45:38.195Z,97159.63
2022-08-01T10:48:20.985Z,97164.31
2022-08-01T10:50:52.538Z,97169.72
2022-08-01T10:53:31.617Z,97150.16
2022-08-01T10:56:12.841Z,97140.06
2022-08-01T10:58:45.199Z,97142.00
2022-08-01T11:01:26.374Z,97136.38
2022-08-01T11:04:02.189Z,97140.25
2022-08-01T11:06:34.979Z,97142.25
2022-08-01T11:09:16.339Z,97139.50
2022-08-01T11:12:13.429Z,97142.91
2022-08-01T11:14:59.610Z,97139.75
2022-08-01T11:17:37.156Z,97132.47
2022-08-01T11:20:17.321Z,97147.03
2022-08-01T11:23:07.075Z,97147.53
2022-08-01T11:26:03.173Z,97140.66
2022-08-01T11:28:32.946Z,97140.59
2022-08-01T11:31:07.920Z,97139.81
2022-08-01T11:33:41.757Z,97127.88
2022-08-01T11:36:11.942Z,97132.13
2022-08-01T11:38:40.683Z,97141.38
2022-08-01T11:41:13.385Z,97135.63
2022-08-01T11:43:59.536Z,97135.91
2022-08-01T11:46:51.085Z,97137.19
2022-08-01T11:49:29.309Z,97138.41
2022-08-01T11:52:09.547Z,97137.94
2022-08-01T11:54:46.099Z,97135.19
2022-08-01T11:57:15.489Z,97139.16
2022-08-01T12:00:02.555Z,97131.97
2022-08-01T12:02:39.273Z,97140.00
2022-08-01T12:05:12.145Z,97139.97
2022-08-01T12:07:41.267Z,97136.00
2022-08-01T12:10:13.591Z,97139.75
2022-08-01T12:13:01.515Z,97134.97
2022-08-01T12:15:34.412Z,97137.88
2022-08-01T12:18:05.672Z,97133.09
2022-08-01T12:20:42.853Z,97137.25
2022-08-01T12:23:21.385Z,97151.41
2022-08-01T12:25:52.669Z,97143.91
2022-08-01T12:28:19.671Z,97148.69
2022-08-01T12:30:49.538Z,97140.19
2022-08-01T12:33:20.546Z,97138.09
2022-08-01T12:35:48.009Z,97141.81
2022-08-01T12:38:26.028Z,97140.59
2022-08-01T12:40:54.761Z,97145.34
2022-08-01T12:43:28.185Z,97154.31
2022-08-01T12:45:58.099Z,97155.13
2022-08-01T12:48:26.014Z,97155.97
2022-08-01T12:50:53.838Z,97151.41
2022-08-01T12:53:22.264Z,97154.31
2022-08-01T12:55:58.975Z,97160.78
2022-08-01T12:58:35.574Z,97151.41
2022-08-01T13:01:10.704Z,97154.94
2022-08-01T13:03:38.533Z,97151.66
2022-08-01T13:06:17.190Z,97152.50
2022-08-01T13:08:45.939Z,97159.34
2022-08-01T13:11:18.329Z,97160.59
2022-08-01T13:13:51.029Z,97146.19
2022-08-01T13:16:27.844Z,97160.69
2022-08-01T13:19:01.694Z,97148.44
2022-08-01T13:21:53.138Z,97153.03
2022-08-01T13:24:17.264Z,97150.56
2022-08-01T13:26:49.743Z,97161.22
2022-08-01T13:29:18.705Z,97154.16
2022-08-01T13:31:46.199Z,97153.31
2022-08-01T13:34:13.168Z,97150.38
2022-08-01T13:36:45.523Z,97159.75
2022-08-01T13:39:47.945Z,97162.44
2022-08-01T13:42:19.168Z,97160.94
2022-08-01T13:44:46.452Z,97161.16
2022-08-01T13:47:15.188Z,97158.66
2022-08-01T13:49:44.153Z,97153.25
2022-08-01T13:52:11.093Z,97152.38
2022-08-01T13:54:37.919Z,97145.78
2022-08-01T13:57:04.651Z,97161.31
2022-08-01T13:59:31.415Z,97151.50
2022-08-01T14:01:58.242Z,97152.16
2022-08-01T14:04:25.165Z,97147.44
2022-08-01T14:06:51.817Z,97151.41
2022-08-01T14:09:24.379Z,97132.06
2022-08-01T14:11:51.677Z,97134.53
2022-08-01T14:14:18.402Z,97139.00
2022-08-01T14:16:45.961Z,97148.09
2022-08-01T14:19:12.903Z,97152.88
2022-08-01T14:21:39.592Z,97152.22
2022-08-01T14:24:07.646Z,97147.69
2022-08-01T14:26:34.529Z,97154.78
2022-08-01T14:29:03.564Z,97154.00
2022-08-01T14:31:34.350Z,97156.91
2022-08-01T14:34:01.760Z,97149.81
2022-08-01T14:36:31.307Z,97153.84
2022-08-01T14:39:00.208Z,97159.81
2022-08-01T14:41:28.279Z,97164.66
2022-08-01T14:43:54.960Z,97167.41
2022-08-01T14:46:21.780Z,97165.91
2022-08-01T14:48:48.523Z,97162.03
2022-08-01T14:51:15.225Z,97168.56
2022-08-01T14:53:46.617Z,97170.84
2022-08-01T14:56:18.343Z,97173.63
2022-08-01T14:58:45.052Z,97178.19
2022-08-01T15:01:11.835Z,97167.72
2022-08-01T15:03:38.503Z,97168.91
2022-08-01T15:06:07.286Z,97176.97
2022-08-01T15:08:33.966Z,97169.25
2022-08-01T15:11:02.085Z,97178.38
2022-08-01T15:13:28.796Z,97180.75
2022-08-01T15:15:55.504Z,97183.09
2022-08-01T15:18:28.422Z,97177.31
2022-08-01T15:20:55.659Z,97172.03
2022-08-01T15:23:22.356Z,97173.44
2022-08-01T15:25:49.817Z,97177.94
2022-08-01T15:28:16.567Z,97182.00
2022-08-01T15:30:43.453Z,97180.69
2022-08-01T15:33:10.041Z,97188.13
2022-08-01T15:35:37.937Z,97190.88
2022-08-01T15:38:04.523Z,97194.19
2022-08-01T15:40:35.246Z,97194.50
2022-08-01T15:43:02.328Z,97194.22
2022-08-01T15:48:17.647Z,97187.66
2022-08-01T15:50:44.373Z,97198.66
2022-08-01T15:53:11.020Z,97202.59
2022-08-01T15:55:39.701Z,97204.81
2022-08-01T15:58:07.225Z,97205.66
2022-08-01T16:00:38.885Z,97196.22
2022-08-01T16:03:07.784Z,97202.06
2022-08-01T16:05:41.054Z,97194.06
2022-08-01T16:08:11.309Z,97189.34
2022-08-01T16:10:37.900Z,97180.47
2022-08-01T16:13:07.377Z,97185.25
2022-08-01T16:15:38.216Z,97185.63
2022-08-01T16:18:12.606Z,97186.63
2022-08-01T16:20:45.077Z,97190.91
2022-08-01T16:23:16.180Z,97184.22
2022-08-01T16:25:44.633Z,97185.41
2022-08-01T16:28:12.017Z,97183.38
2022-08-01T16:30:48.569Z,97181.13
2022-08-01T16:33:40.202Z,97187.34
2022-08-01T16:36:09.447Z,97187.19
2022-08-01T16:38:45.008Z,97181.63
2022-08-01T16:41:19.727Z,97180.84
2022-08-01T16:43:53.786Z,97175.19
2022-08-01T16:46:21.916Z,97183.47
2022-08-01T16:48:48.533Z,97185.50
2022-08-01T16:51:15.536Z,97187.53
2022-08-01T16:53:42.182Z,97177.16
2022-08-01T16:56:08.808Z,97173.53
2022-08-01T16:58:35.683Z,97175.50
2022-08-01T17:01:59.986Z,97176.06
2022-08-01T17:03:53.005Z,97180.69
2022-08-01T17:06:22.287Z,97173.34
2022-08-01T17:08:49.955Z,97177.50
2022-08-01T17:11:17.078Z,97178.63
2022-08-01T17:13:44.109Z,97174.81
2022-08-01T17:16:11.872Z,97171.66
2022-08-01T17:18:38.863Z,97179.56
2022-08-01T17:21:05.731Z,97168.00
2022-08-01T17:23:32.483Z,97170.47
2022-08-01T17:25:59.741Z,97180.50
2022-08-01T17:28:26.648Z,97180.50
2022-08-01T17:30:53.600Z,97177.81
2022-08-01T17:33:20.602Z,97175.94
2022-08-01T17:35:47.280Z,97172.97
2022-08-01T17:38:14.480Z,97169.34
2022-08-01T17:40:41.693Z,97170.19
2022-08-01T17:43:09.087Z,97172.22
2022-08-01T17:45:50.158Z,97169.56
2022-08-01T17:48:18.934Z,97181.69
2022-08-01T17:50:47.506Z,97184.63
2022-08-01T17:53:15.716Z,97192.94
2022-08-01T17:55:54.095Z,97188.81
2022-08-01T17:58:49.788Z,97200.63
2022-08-01T18:01:15.448Z,97200.78
2022-08-01T18:03:43.049Z,97198.75
2022-08-01T18:06:13.513Z,97204.16
2022-08-01T18:08:43.079Z,97194.78
2022-08-01T18:11:10.108Z,97202.72
2022-08-01T18:13:40.543Z,97202.72
2022-08-01T18:16:11.294Z,97196.66
2022-08-01T18:18:39.276Z,97202.75
2022-08-01T18:21:07.385Z,97201.19
2022-08-01T18:23:35.143Z,97203.88
2022-08-01T18:26:02.891Z,97209.59
2022-08-01T18:28:36.613Z,97203.06
2022-08-01T18:31:06.464Z,97210.88
2022-08-01T18:33:34.951Z,97209.75
2022-08-01T18:36:03.696Z,97206.75
2022-08-01T18:38:35.165Z,97209.75
2022-08-01T18:41:06.027Z,97213.81
2022-08-01T18:43:33.109Z,97207.81
2022-08-01T18:46:01.320Z,97224.06
2022-08-01T18:48:29.099Z,97220.91
2022-08-01T18:50:56.138Z,97220.72
2022-08-01T18:53:24.100Z,97222.91
2022-08-01T18:55:51.081Z,97222.94
2022-08-01T18:58:17.811Z,97220.25
2022-08-01T19:00:44.586Z,97218.56
2022-08-01T19:03:11.259Z,97224.44
2022-08-01T19:05:37.876Z,97225.25
2022-08-01T19:08:07.829Z,97234.06
2022-08-01T19:10:41.295Z,97239.88
2022-08-01T19:13:08.879Z,97245.25
2022-08-01T19:15:35.985Z,97241.00
2022-08-01T19:18:03.470Z,97242.66
2022-08-01T19:20:30.559Z,97253.94
2022-08-01T19:22:57.812Z,97255.38
2022-08-01T19:25:24.533Z,97256.44
2022-08-01T19:27:52.478Z,97256.72
2022-08-01T19:30:20.022Z,97262.34
2022-08-01T19:32:48.851Z,97264.06
2022-08-01T19:35:17.302Z,97265.75
2022-08-01T19:37:47.089Z,97267.81
2022-08-01T19:40:26.914Z,97276.59
2022-08-01T19:42:55.973Z,97274.56
2022-08-01T19:45:23.013Z,97278.94
2022-08-01T19:47:56.589Z,97292.13
2022-08-01T19:50:25.315Z,97296.09
2022-08-01T19:52:52.940Z,97293.72
2022-08-01T19:55:20.413Z,97287.34
2022-08-01T19:57:59.294Z,97297.41
2022-08-01T20:00:39.024Z,97295.31
2022-08-01T20:03:07.211Z,97302.06
2022-08-01T20:05:34.847Z,97297.19
2022-08-01T20:08:02.107Z,97303.28
2022-08-01T20:10:30.169Z,97294.63
2022-08-01T20:12:59.904Z,97297.41
2022-08-01T20:15:26.897Z,97295.34
2022-08-01T20:17:57.651Z,97309.25
2022-08-01T20:20:24.486Z,97311.53
2022-08-01T20:22:55.894Z,97310.69
2022-08-01T20:25:34.945Z,97321.53
2022-08-01T20:28:11.155Z,97318.28
2022-08-01T20:30:40.473Z,97321.78
2022-08-01T20:33:08.450Z,97327.41
2022-08-01T20:35:50.849Z,97326.41
2022-08-01T20:38:25.218Z,97331.47
2022-08-01T20:40:58.901Z,97326.72
2022-08-01T20:43:28.789Z,97341.44
2022-08-01T20:45:56.170Z,97343.97
2022-08-01T20:48:25.370Z,97335.41
2022-08-01T20:51:10.389Z,97336.50
2022-08-01T20:53:41.811Z,97332.31
2022-08-01T20:56:38.061Z,97333.84
2022-08-01T20:59:55.440Z,97333.16
2022-08-01T21:02:16.381Z,97328.06
2022-08-01T21:04:57.038Z,97324.28
2022-08-01T21:07:27.158Z,97331.97
2022-08-01T21:10:17.924Z,97333.81
2022-08-01T21:12:49.546Z,97334.13
2022-08-01T21:15:29.422Z,97340.88
2022-08-01T21:18:04.037Z,97337.94
2022-08-01T21:20:37.507Z,97346.28
2022-08-01T21:23:29.012Z,97343.75
2022-08-01T21:25:58.223Z,97344.56
2022-08-01T21:28:26.231Z,97338.38
2022-08-01T21:30:56.576Z,97345.38
2022-08-01T21:33:25.851Z,97354.91
2022-08-01T21:36:01.243Z,97353.78
2022-08-01T21:38:32.615Z,97348.63
2022-08-01T21:41:03.452Z,97353.13
2022-08-01T21:43:33.183Z,97342.28
2022-08-01T21:46:01.437Z,97344.94
2022-08-01T21:48:30.740Z,97355.28
2022-08-01T21:51:01.255Z,97347.00
2022-08-01T21:53:55.430Z,97349.94
2022-08-01T21:56:47.722Z,97342.84
2022-08-01T21:59:17.494Z,97343.81
2022-08-01T22:01:53.222Z,97351.38
2022-08-01T22:04:46.607Z,97348.41
2022-08-01T22:07:16.378Z,97351.16
2022-08-01T22:09:49.696Z,97354.22
2022-08-01T22:12:18.810Z,97355.91
2022-08-01T22:14:53.433Z,97352.41
2022-08-01T22:17:24.849Z,97348.63
2022-08-01T22:19:55.088Z,97355.16
2022-08-01T22:22:44.143Z,97350.19
2022-08-01T22:25:12.896Z,97354.59
2022-08-01T22:28:06.763Z,97355.16
2022-08-01T22:30:30.540Z,97353.94
2022-08-01T22:33:07.422Z,97355.84
2022-08-01T22:35:43.308Z,97351.16
2022-08-01T22:38:10.456Z,97350.88
2022-08-01T22:40:45.195Z,97355.31
2022-08-01T22:43:23.748Z,97357.53
2022-08-01T22:46:10.577Z,97351.81
2022-08-01T22:48:52.458Z,97353.69
2022-08-01T22:51:40.256Z,97357.97
2022-08-01T22:54:11.355Z,97356.03
2022-08-01T22:56:45.872Z,97356.88
2022-08-01T22:59:19.601Z,97359.53
2022-08-01T23:01:51.388Z,97357.69
2022-08-01T23:04:44.823Z,97365.84
2022-08-01T23:07:14.151Z,97372.44
2022-08-01T23:09:53.148Z,97370.72
2022-08-01T23:12:22.967Z,97375.97
2022-08-01T23:14:53.187Z,97374.78
2022-08-01T23:17:27.608Z,97378.47
2022-08-01T23:20:05.653Z,97376.22
2022-08-01T23:22:34.677Z,97370.63
2022-08-01T23:25:06.699Z,97373.44
2022-08-01T23:27:57.819Z,97386.16
2022-08-01T23:30:27.797Z,97376.50
2022-08-01T23:32:54.832Z,97384.91
2022-08-01T23:35:21.608Z,97378.53
2022-08-01T23:37:48.336Z,97377.78
2022-08-01T23:40:15.030Z,97379.38
2022-08-01T23:42:41.676Z,97381.59
2022-08-01T23:45:09.073Z,97376.19
2022-08-01T23:47:35.681Z,97377.28
2022-08-01T23:50:02.283Z,97378.09
2022-08-01T23:52:32.072Z,97372.66
2022-08-01T23:54:59.971Z,97369.78
2022-08-01T23:57:40.856Z,97375.13
